Time;durP1;ratioP1;P1;durP2;ratioP2;P2;SDS_P1;SDS_P2;PMS_P1;PMS_P2;Temp;Humidity;BMP_temperature;BMP_pressure;BME280_temperature;BME280_humidity;BME280_pressure;Samples;Min_cycle;Max_cycle;Signal;HPM_P1;HPM_P2
2021/12/07 00:00:47;;;;;;;30.63;12.40;;;;;;;10.56;30.90;99484.00;5075286;28;20044;-78
2021/12/07 00:03:13;;;;;;;28.07;12.50;;;;;;;9.40;32.21;99427.19;5091068;28;20522;-78
2021/12/07 00:05:39;;;;;;;27.40;11.67;;;;;;;10.12;31.27;99472.69;5058593;28;20036;-78
2021/12/07 00:08:05;;;;;;;23.37;11.23;;;;;;;9.54;32.03;99474.34;5058684;28;20071;-78
2021/12/07 00:10:31;;;;;;;26.27;11.57;;;;;;;9.11;32.59;99469.88;5058928;28;20120;-78
2021/12/07 00:12:58;;;;;;;26.23;12.20;;;;;;;9.46;32.18;99443.28;5091995;28;20040;-78
2021/12/07 00:15:24;;;;;;;27.33;12.83;;;;;;;9.91;31.44;99454.50;5058901;28;20036;-78
2021/12/07 00:17:50;;;;;;;30.30;13.73;;;;;;;10.22;31.27;99445.03;5042061;28;20509;-78
2021/12/07 00:20:19;;;;;;;26.07;12.83;;;;;;;10.41;31.17;99457.22;5091551;28;20052;-78
2021/12/07 00:22:48;;;;;;;24.07;11.87;;;;;;;10.49;31.28;99445.78;5091372;28;20044;-78
2021/12/07 00:25:15;;;;;;;27.40;12.63;;;;;;;10.17;31.92;99446.53;5074630;28;20044;-78
2021/12/07 00:27:41;;;;;;;28.30;12.70;;;;;;;10.20;31.02;99441.75;5075206;28;20044;-78
2021/12/07 00:30:09;;;;;;;26.13;11.83;;;;;;;10.54;30.68;99446.97;5074111;28;20047;-79
2021/12/07 00:32:40;;;;;;;22.07;11.10;;;;;;;9.51;32.41;99433.06;5074303;28;20048;-79
2021/12/07 00:38:15;;;;;;;25.07;11.77;;;;;;;10.59;31.30;99406.66;5030353;28;20041;-79
2021/12/07 00:40:41;;;;;;;24.33;10.67;;;;;;;9.68;32.52;99399.53;5044654;28;20430;-78
2021/12/07 00:43:09;;;;;;;28.87;11.67;;;;;;;10.27;31.63;99399.47;5088280;28;20044;-78
2021/12/07 00:45:35;;;;;;;21.50;10.27;;;;;;;9.89;31.62;99407.91;5089465;28;20097;-77
2021/12/07 00:48:03;;;;;;;18.00;9.33;;;;;;;10.27;31.82;99410.91;5088625;28;20066;-78
2021/12/07 00:50:29;;;;;;;21.20;9.00;;;;;;;10.11;32.00;99405.56;5072702;28;20048;-78
2021/12/07 00:52:55;;;;;;;14.60;7.20;;;;;;;10.20;31.87;99409.06;5055445;28;20411;-79
2021/12/07 00:55:27;;;;;;;12.77;5.93;;;;;;;10.83;31.19;99391.56;5040836;28;20136;-79
2021/12/07 00:57:56;;;;;;;15.40;6.87;;;;;;;10.05;32.08;99400.84;5076754;28;20093;-79
2021/12/07 01:00:25;;;;;;;14.27;6.13;;;;;;;10.58;31.44;99386.41;5080693;28;20044;-79
2021/12/07 01:02:53;;;;;;;12.83;7.07;;;;;;;10.34;31.17;99378.38;5075994;28;20067;-79
2021/12/07 01:05:26;;;;;;;12.03;6.47;;;;;;;10.12;31.80;99382.47;5074904;28;20484;-79
2021/12/07 01:08:17;;;;;;;17.30;7.73;;;;;;;9.35;32.27;99379.94;5075607;28;20051;-78
2021/12/07 01:24:44;;;;;;;12.37;6.17;;;;;;;9.71;31.41;99354.97;5059638;28;20107;-79
2021/12/07 01:27:13;;;;;;;14.67;7.17;;;;;;;9.97;31.78;99366.34;5059330;28;20039;-77
2021/12/07 01:29:40;;;;;;;10.97;5.70;;;;;;;10.09;31.52;99370.38;5089474;28;20042;-79
2021/12/07 01:46:01;;;;;;;12.03;6.07;;;;;;;10.66;31.52;99343.91;5090645;28;20093;-79
2021/12/07 02:01:30;;;;;;;12.67;5.57;;;;;;;10.43;31.83;99319.00;5088937;28;20127;-79
2021/12/07 02:03:56;;;;;;;9.97;5.93;;;;;;;9.87;31.74;99288.69;5039024;28;20155;-79
2021/12/07 02:06:22;;;;;;;10.47;5.90;;;;;;;10.46;31.32;99308.06;5055805;28;20044;-78
2021/12/07 02:08:47;;;;;;;11.20;6.23;;;;;;;10.24;32.11;99301.56;5055505;28;20047;-79
2021/12/07 02:11:13;;;;;;;11.33;5.37;;;;;;;10.67;31.27;99297.78;5055814;28;20445;-78
2021/12/07 02:16:06;;;;;;;12.23;6.43;;;;;;;10.52;32.83;99305.56;5073772;28;20071;-79
2021/12/07 02:18:32;;;;;;;10.53;4.47;;;;;;;10.54;32.20;99289.47;5074820;28;20554;-80
2021/12/07 02:21:25;;;;;;;9.67;5.80;;;;;;;10.69;32.44;99293.13;5057633;28;20044;-78
2021/12/07 02:24:08;;;;;;;8.43;5.33;;;;;;;11.01;31.83;99285.13;5060235;28;20044;-79
2021/12/07 02:26:34;;;;;;;10.07;6.10;;;;;;;10.56;31.81;99277.72;5059647;28;20143;-79
2021/12/07 02:29:00;;;;;;;7.13;4.33;;;;;;;10.34;32.61;99283.69;5042853;28;20411;-78
2021/12/07 02:31:26;;;;;;;9.33;5.37;;;;;;;10.21;32.65;99296.59;5059979;28;20135;-77
2021/12/07 02:33:53;;;;;;;8.30;4.47;;;;;;;10.29;31.99;99282.53;5059665;28;20040;-78
2021/12/07 02:36:19;;;;;;;12.00;5.80;;;;;;;9.92;32.86;99283.75;5076558;28;20052;-79
2021/12/07 02:38:45;;;;;;;11.93;6.67;;;;;;;10.33;32.83;99271.41;5076554;28;20527;-79
2021/12/07 02:41:11;;;;;;;10.70;6.13;;;;;;;10.61;32.04;99271.91;5076031;28;20112;-79
2021/12/07 02:43:37;;;;;;;8.53;4.77;;;;;;;10.46;31.93;99260.28;5059349;28;20579;-78
2021/12/07 02:46:03;;;;;;;11.03;3.77;;;;;;;10.56;31.72;99271.56;5059236;28;20036;-78
2021/12/07 02:48:30;;;;;;;6.30;3.90;;;;;;;10.99;31.43;99241.94;5050630;28;20441;-78
2021/12/07 02:50:58;;;;;;;12.37;6.17;;;;;;;11.03;30.73;99251.22;5083969;28;20047;-77
2021/12/07 02:53:28;;;;;;;8.43;4.90;;;;;;;11.33;31.35;99256.59;5083031;28;20097;-76
2021/12/07 02:55:58;;;;;;;7.83;4.23;;;;;;;11.50;31.30;99257.41;5066025;28;20134;-77
2021/12/07 02:58:25;;;;;;;13.30;5.70;;;;;;;11.01;32.29;99245.28;5049539;28;20499;-77
2021/12/07 03:01:00;;;;;;;8.43;4.33;;;;;;;10.41;32.92;99257.31;5047159;28;20073;-77
2021/12/07 03:03:28;;;;;;;13.90;6.13;;;;;;;9.80;33.05;99245.25;5043241;28;20534;-76
2021/12/07 03:27:59;;;;;;;10.70;4.70;;;;;;;10.72;32.90;99189.19;5059918;28;20071;-78
2021/12/07 03:30:26;;;;;;;10.07;5.73;;;;;;;10.81;32.90;99166.97;5041614;28;20403;-77
2021/12/07 03:32:53;;;;;;;9.80;5.13;;;;;;;10.32;32.97;99176.03;5059188;28;20575;-79
2021/12/07 03:35:19;;;;;;;6.90;3.73;;;;;;;11.31;32.35;99178.88;5040920;28;20055;-77
2021/12/07 03:37:45;;;;;;;4.10;2.90;;;;;;;11.21;31.99;99153.50;5057191;28;20050;-77
2021/12/07 03:40:12;;;;;;;9.17;4.10;;;;;;;10.84;32.62;99114.28;5040982;28;20507;-76
2021/12/07 03:42:39;;;;;;;11.93;5.23;;;;;;;10.85;32.28;99163.78;5041002;28;20036;-77
2021/12/07 03:45:07;;;;;;;9.40;4.80;;;;;;;11.54;32.45;99157.63;5057955;28;20123;-79
2021/12/07 03:47:33;;;;;;;11.70;6.10;;;;;;;10.92;32.44;99146.16;5058044;28;20044;-78
2021/12/07 03:49:59;;;;;;;6.77;3.77;;;;;;;11.36;32.44;99163.22;5042326;28;20097;-79
2021/12/07 03:52:25;;;;;;;7.33;4.10;;;;;;;11.24;32.13;99151.31;5041285;28;20043;-77
2021/12/07 03:54:51;;;;;;;4.57;3.40;;;;;;;11.45;32.10;99146.22;5058080;28;20055;-80
2021/12/07 03:57:17;;;;;;;9.17;4.17;;;;;;;11.53;31.76;99150.66;5041343;28;20089;-80
2021/12/07 03:59:45;;;;;;;9.37;5.13;;;;;;;11.38;31.69;99157.72;5075137;28;20051;-76
2021/12/07 04:02:11;;;;;;;9.53;4.67;;;;;;;11.26;31.94;99106.78;5040323;28;20032;-78
2021/12/07 04:04:38;;;;;;;12.57;4.87;;;;;;;11.13;32.07;99132.28;5056955;28;20044;-79
2021/12/07 04:07:04;;;;;;;11.13;5.70;;;;;;;11.63;32.24;99130.84;5058491;28;20475;-78
2021/12/07 04:09:32;;;;;;;15.33;5.43;;;;;;;11.55;31.74;99130.88;5041985;28;20101;-78
2021/12/07 04:11:59;;;;;;;8.07;4.33;;;;;;;11.70;31.76;99120.34;5041109;28;20040;-77
2021/12/07 04:14:25;;;;;;;7.43;4.63;;;;;;;11.73;31.41;99125.28;5057704;28;20040;-79
2021/12/07 04:16:51;;;;;;;7.13;4.10;;;;;;;11.64;31.39;99137.81;5057543;28;20047;-79
2021/12/07 04:19:18;;;;;;;7.33;4.07;;;;;;;11.60;31.87;99090.44;5040857;28;20040;-78
2021/12/07 04:21:44;;;;;;;14.17;4.63;;;;;;;11.65;31.26;99114.72;5056663;28;20039;-72
2021/12/07 04:24:10;;;;;;;8.97;4.73;;;;;;;11.78;31.71;99089.16;5041047;28;20522;-74
2021/12/07 04:26:37;;;;;;;14.93;4.87;;;;;;;11.58;32.14;99121.69;5090432;28;20471;-76
2021/12/07 04:29:03;;;;;;;10.27;4.87;;;;;;;11.59;32.03;99096.78;5106685;28;20097;-75
2021/12/07 04:31:29;;;;;;;6.40;3.07;;;;;;;11.69;31.74;99076.94;5106129;28;20442;-76
2021/12/07 04:33:56;;;;;;;9.20;4.20;;;;;;;11.94;31.80;99093.53;5072619;28;20097;-77
2021/12/07 04:36:21;;;;;;;5.87;3.50;;;;;;;11.55;31.97;99076.84;5088959;28;20496;-68
2021/12/07 04:38:48;;;;;;;8.20;4.43;;;;;;;12.09;31.33;99110.34;5064001;28;20048;-74
2021/12/07 04:41:13;;;;;;;7.20;4.63;;;;;;;12.12;31.16;99090.50;5069078;28;20067;-75
2021/12/07 04:43:40;;;;;;;6.80;3.90;;;;;;;12.26;31.59;99085.22;5052135;28;20472;-75
2021/12/07 04:46:30;;;;;;;7.73;4.30;;;;;;;12.41;31.80;99085.25;5067521;28;20044;-73
2021/12/07 04:49:29;;;;;;;7.87;4.17;;;;;;;11.87;31.75;99085.41;5067460;28;20085;-72
2021/12/07 04:59:56;;;;;;;10.87;4.87;;;;;;;11.99;31.71;99067.19;5052464;28;20097;-75
2021/12/07 05:02:21;;;;;;;2.63;2.20;;;;;;;11.89;31.22;99040.00;5035401;28;20048;-74
2021/12/07 05:04:47;;;;;;;5.47;3.20;;;;;;;11.84;32.02;99047.69;5067855;28;20063;-73
2021/12/07 05:07:23;;;;;;;3.63;2.87;;;;;;;11.98;31.74;99044.25;5048811;28;20480;-72
2021/12/07 05:12:25;;;;;;;1.60;1.50;;;;;;;11.55;31.12;99005.03;5065244;28;20052;-74
2021/12/07 05:14:59;;;;;;;3.07;2.10;;;;;;;12.11;31.62;99044.44;5066007;28;20147;-74
2021/12/07 05:18:01;;;;;;;6.57;3.77;;;;;;;12.00;31.71;99014.78;5087498;28;20748;-69
2021/12/07 05:39:35;;;;;;;3.10;2.50;;;;;;;12.39;31.05;99042.81;5087826;28;20121;-74
2021/12/07 05:42:01;;;;;;;1.70;1.60;;;;;;;12.30;30.63;99038.56;5087756;28;20044;-74
2021/12/07 05:44:27;;;;;;;9.70;4.07;;;;;;;12.71;31.17;99039.75;5089253;28;20563;-71
2021/12/07 05:46:53;;;;;;;1.77;1.67;;;;;;;12.72;30.50;99041.41;5087802;28;20032;-75
2021/12/07 05:49:19;;;;;;;2.73;2.47;;;;;;;12.51;30.65;99032.53;5069670;28;20122;-74
2021/12/07 05:51:45;;;;;;;0.80;0.80;;;;;;;12.58;30.36;99042.25;5087319;28;20028;-75
2021/12/07 05:54:11;;;;;;;2.20;2.00;;;;;;;12.29;30.37;98988.16;5054912;28;20036;-69
2021/12/07 05:56:36;;;;;;;4.07;2.67;;;;;;;12.47;31.34;98981.44;5088372;28;20074;-73
2021/12/07 05:59:02;;;;;;;2.83;1.80;;;;;;;12.60;30.84;99010.94;5087633;28;20047;-73
2021/12/07 06:01:28;;;;;;;3.50;2.20;;;;;;;12.54;30.60;99030.31;5072247;28;20043;-74
2021/12/07 06:03:54;;;;;;;3.53;2.40;;;;;;;12.40;30.61;99020.50;5092573;28;20417;-74
2021/12/07 06:06:20;;;;;;;1.80;1.70;;;;;;;11.86;31.21;98981.84;5092010;28;20047;-70
2021/12/07 06:08:45;;;;;;;1.83;1.43;;;;;;;12.21;31.17;99014.91;5040429;28;20598;-74
2021/12/07 06:11:11;;;;;;;1.73;1.13;;;;;;;12.33;31.29;98982.28;5073862;28;20783;-71
2021/12/07 06:13:37;;;;;;;2.00;1.80;;;;;;;12.47;31.11;99018.75;5090598;28;20043;-73
2021/12/07 06:16:07;;;;;;;1.20;1.10;;;;;;;12.62;31.09;99022.25;5072587;28;20064;-72
2021/12/07 06:18:34;;;;;;;0.97;0.97;;;;;;;12.71;30.96;99015.78;5092105;28;20039;-72
2021/12/07 06:21:00;;;;;;;2.93;1.83;;;;;;;12.94;31.14;99010.31;5108078;28;20514;-74
2021/12/07 06:23:25;;;;;;;1.63;1.40;;;;;;;12.39;31.25;99013.53;5082271;28;20139;-71
2021/12/07 06:25:54;;;;;;;1.80;1.50;;;;;;;12.61;31.02;99036.56;5091542;28;20118;-70
2021/12/07 06:28:20;;;;;;;1.90;1.60;;;;;;;12.75;31.21;99022.38;5092075;28;20508;-72
2021/12/07 06:30:47;;;;;;;1.70;1.60;;;;;;;12.99;30.98;99023.91;5092289;28;20044;-73
2021/12/07 06:33:14;;;;;;;1.97;1.40;;;;;;;12.98;31.23;99032.88;5091644;28;20039;-71
2021/12/07 06:35:40;;;;;;;2.20;1.50;;;;;;;12.66;31.03;99006.69;5088178;28;20071;-69
2021/12/07 06:38:06;;;;;;;2.30;1.80;;;;;;;12.72;31.03;99019.25;5090711;28;20067;-71
2021/12/07 06:40:31;;;;;;;1.10;1.10;;;;;;;12.74;31.19;98987.94;5090571;28;20119;-73
2021/12/07 06:42:59;;;;;;;1.30;1.20;;;;;;;12.93;30.74;99014.81;5091899;28;20138;-71
2021/12/07 06:45:26;;;;;;;2.57;1.83;;;;;;;13.05;30.98;99002.66;5041822;28;20059;-71
2021/12/07 06:47:54;;;;;;;3.30;1.90;;;;;;;13.47;30.89;98996.50;5056734;28;20036;-72
2021/12/07 06:50:20;;;;;;;1.23;1.13;;;;;;;13.31;30.95;99013.63;5071292;28;20041;-71
2021/12/07 06:52:46;;;;;;;1.80;1.20;;;;;;;13.21;31.24;98991.75;5091655;28;20054;-72
2021/12/07 06:55:11;;;;;;;1.50;1.30;;;;;;;13.04;30.97;98977.03;5089428;28;20039;-71
2021/12/07 06:57:37;;;;;;;0.60;0.60;;;;;;;13.40;31.10;98980.47;5071370;28;20060;-72
2021/12/07 07:00:06;;;;;;;2.23;1.40;;;;;;;13.93;30.56;98994.22;5091391;28;20047;-72
2021/12/07 07:02:32;;;;;;;2.80;1.77;;;;;;;13.13;30.60;98959.09;5102016;28;20426;-71
2021/12/07 07:04:58;;;;;;;1.60;1.30;;;;;;;13.19;30.79;98956.47;5073331;28;20056;-70
2021/12/07 07:07:24;;;;;;;1.37;1.20;;;;;;;13.47;30.93;98976.00;5092889;28;20043;-72
2021/12/07 07:09:51;;;;;;;0.80;0.80;;;;;;;13.83;30.69;98975.03;5057420;28;20048;-72
2021/12/07 07:12:17;;;;;;;0.60;0.60;;;;;;;13.76;31.02;98990.19;5069851;28;20032;-71
2021/12/07 07:14:43;;;;;;;1.20;1.10;;;;;;;13.65;30.86;98999.56;5081955;28;20071;-70
2021/12/07 07:17:09;;;;;;;0.80;0.80;;;;;;;13.61;31.00;98979.59;5083031;28;20075;-71
2021/12/07 07:19:34;;;;;;;2.13;1.33;;;;;;;13.66;30.76;99008.38;5092540;28;20054;-71
2021/12/07 07:22:02;;;;;;;0.70;0.70;;;;;;;13.64;31.10;98970.41;5088365;28;20032;-67
2021/12/07 07:24:29;;;;;;;0.73;0.73;;;;;;;14.07;30.91;98966.59;5080047;28;20067;-73
2021/12/07 07:26:55;;;;;;;0.97;0.90;;;;;;;13.88;30.85;98985.97;5082205;28;20134;-72
2021/12/07 07:29:21;;;;;;;0.73;0.73;;;;;;;13.86;31.13;98988.84;5073760;28;20152;-73
2021/12/07 07:31:46;;;;;;;0.87;0.87;;;;;;;13.80;31.22;98970.09;5086525;28;20044;-71
2021/12/07 07:34:12;;;;;;;1.13;1.10;;;;;;;13.92;30.67;98965.84;5089583;28;20035;-73
2021/12/07 07:36:38;;;;;;;1.20;1.10;;;;;;;13.99;30.72;98978.22;5083988;28;20062;-71
2021/12/07 07:39:04;;;;;;;2.17;1.50;;;;;;;14.06;30.81;98975.59;5108046;28;20100;-72
2021/12/07 07:41:29;;;;;;;2.60;1.63;;;;;;;13.92;30.61;98981.88;5057071;28;20041;-71
2021/12/07 07:43:55;;;;;;;0.70;0.70;;;;;;;13.90;31.16;98974.06;5078595;28;20052;-72
2021/12/07 07:46:25;;;;;;;0.90;0.90;;;;;;;14.18;31.02;98972.19;5087676;28;20129;-72
2021/12/07 07:48:50;;;;;;;0.57;0.57;;;;;;;13.95;31.53;98974.31;5070243;28;20041;-72
2021/12/07 07:51:16;;;;;;;0.50;0.50;;;;;;;14.06;31.40;98971.09;5084334;28;20058;-70
2021/12/07 07:53:42;;;;;;;0.70;0.70;;;;;;;14.07;30.95;98967.41;5081017;28;20088;-71
2021/12/07 07:56:08;;;;;;;0.67;0.67;;;;;;;14.33;31.30;98964.91;5090343;28;20503;-72
2021/12/07 07:58:33;;;;;;;0.80;0.80;;;;;;;14.10;31.39;98955.53;5089724;28;20040;-72
2021/12/07 08:01:00;;;;;;;1.77;1.10;;;;;;;14.15;31.08;98921.03;5089785;28;20500;-72
2021/12/07 08:03:25;;;;;;;0.80;0.80;;;;;;;14.14;31.72;98962.94;5067698;28;20045;-73
2021/12/07 08:05:51;;;;;;;0.60;0.60;;;;;;;14.32;31.32;98962.44;5069474;28;20078;-73
2021/12/07 08:08:21;;;;;;;0.90;0.90;;;;;;;14.34;31.10;98971.09;5069108;28;20187;-73
2021/12/07 08:10:47;;;;;;;2.17;1.20;;;;;;;14.42;30.95;98968.25;5091188;28;20056;-71
2021/12/07 08:13:14;;;;;;;0.80;0.80;;;;;;;14.46;30.85;98977.50;5085395;28;20078;-72
2021/12/07 08:15:43;;;;;;;0.70;0.70;;;;;;;14.80;30.73;98958.72;5070672;28;20457;-71
2021/12/07 08:18:10;;;;;;;0.70;0.70;;;;;;;14.79;31.26;98949.06;5050336;28;20134;-71
2021/12/07 08:20:36;;;;;;;1.30;1.20;;;;;;;14.61;30.90;98948.78;5097285;28;20526;-72
2021/12/07 08:23:05;;;;;;;0.60;0.60;;;;;;;14.41;31.22;98926.50;5089912;28;20063;-71
2021/12/07 08:25:37;;;;;;;0.67;0.67;;;;;;;15.01;30.95;98937.19;5073006;28;20101;-70
2021/12/07 08:28:07;;;;;;;1.33;1.23;;;;;;;14.93;31.30;98950.72;5089182;28;20571;-71
2021/12/07 08:30:36;;;;;;;0.73;0.73;;;;;;;14.86;31.74;98941.88;5056413;28;20071;-71
2021/12/07 08:33:02;;;;;;;0.60;0.60;;;;;;;14.63;31.22;98947.59;5088657;28;20082;-71
2021/12/07 08:35:27;;;;;;;0.70;0.70;;;;;;;14.55;31.31;98938.91;5088612;28;20040;-69
2021/12/07 08:37:53;;;;;;;0.83;0.83;;;;;;;14.43;30.95;98943.19;5071684;28;20040;-71
2021/12/07 08:40:23;;;;;;;1.00;1.00;;;;;;;14.85;30.63;98902.81;5068636;28;20049;-71
2021/12/07 08:42:50;;;;;;;0.50;0.50;;;;;;;14.88;31.18;98940.66;5068117;28;20044;-70
2021/12/07 08:45:16;;;;;;;0.87;0.87;;;;;;;14.66;31.32;98911.59;5069002;28;20047;-71
2021/12/07 08:47:42;;;;;;;1.47;1.00;;;;;;;14.54;31.22;98915.88;5069965;28;20080;-72
2021/12/07 08:50:14;;;;;;;1.10;1.00;;;;;;;15.16;30.90;98892.34;5068450;28;20083;-69
2021/12/07 08:52:40;;;;;;;0.60;0.60;;;;;;;14.66;31.38;98877.69;5070131;28;20051;-70
2021/12/07 09:00:29;;;;;;;0.70;0.70;;;;;;;15.05;30.92;98922.41;5084529;28;20135;-70
2021/12/07 09:02:55;;;;;;;1.23;1.00;;;;;;;14.49;31.22;98897.78;5072434;28;20051;-72
2021/12/07 09:05:21;;;;;;;0.87;0.87;;;;;;;14.50;31.33;98883.38;5087984;28;20036;-73
2021/12/07 09:07:47;;;;;;;0.60;0.60;;;;;;;14.60;31.10;98904.41;5088855;28;20035;-73
2021/12/07 09:10:13;;;;;;;0.93;0.90;;;;;;;14.85;31.02;98908.16;5074866;28;20131;-71
2021/12/07 09:12:40;;;;;;;0.90;0.90;;;;;;;14.67;31.05;98910.56;5055016;28;20424;-73
2021/12/07 09:15:07;;;;;;;0.70;0.70;;;;;;;14.87;31.30;98906.09;5071100;28;20047;-68
2021/12/07 09:17:33;;;;;;;0.80;0.80;;;;;;;14.87;31.17;98911.44;5069692;28;20044;-73
2021/12/07 09:19:59;;;;;;;1.10;1.00;;;;;;;14.53;31.03;98887.53;5073482;28;20043;-73
2021/12/07 09:22:26;;;;;;;1.20;1.10;;;;;;;14.75;31.32;98892.50;5069924;28;20052;-73
2021/12/07 09:24:52;;;;;;;0.63;0.63;;;;;;;14.65;31.58;98888.59;5067391;28;20036;-73
2021/12/07 09:27:17;;;;;;;0.70;0.70;;;;;;;14.74;31.50;98890.88;5069595;28;20641;-76
2021/12/07 09:29:44;;;;;;;0.63;0.63;;;;;;;14.81;31.46;98864.97;5048889;28;20049;-74
2021/12/07 09:32:10;;;;;;;0.60;0.60;;;;;;;14.91;31.26;98899.31;5068964;28;20177;-72
2021/12/07 09:34:35;;;;;;;0.50;0.50;;;;;;;14.67;31.54;98881.16;5084688;28;20572;-73
2021/12/07 09:37:01;;;;;;;0.80;0.80;;;;;;;14.65;31.35;98873.34;5068358;28;20139;-71
2021/12/07 09:39:27;;;;;;;0.80;0.80;;;;;;;14.62;31.56;98879.09;5067958;28;20045;-65
2021/12/07 09:41:53;;;;;;;0.60;0.60;;;;;;;14.86;31.31;98883.91;5068507;28;20040;-71
2021/12/07 09:44:19;;;;;;;0.70;0.70;;;;;;;14.69;31.40;98881.81;5069528;28;20096;-69
2021/12/07 09:46:45;;;;;;;0.70;0.70;;;;;;;14.49;31.31;98854.19;5051884;28;20086;-73
2021/12/07 09:49:10;;;;;;;0.77;0.77;;;;;;;14.78;31.50;98876.06;5074538;28;20645;-73
2021/12/07 09:51:37;;;;;;;0.90;0.90;;;;;;;15.10;31.22;98871.75;5051462;28;20090;-72
2021/12/07 09:54:04;;;;;;;0.70;0.70;;;;;;;15.23;31.00;98877.13;5034942;28;20076;-72
2021/12/07 09:56:30;;;;;;;1.53;1.30;;;;;;;14.66;31.19;98866.16;5069455;28;20090;-71
2021/12/07 09:58:57;;;;;;;0.90;0.90;;;;;;;14.96;31.31;98872.81;5069752;28;20040;-72
2021/12/07 10:01:26;;;;;;;0.80;0.80;;;;;;;15.14;31.25;98856.97;5051372;28;20044;-69
2021/12/07 10:03:52;;;;;;;0.60;0.60;;;;;;;14.70;31.34;98878.09;5068587;28;20045;-70
2021/12/07 10:06:19;;;;;;;0.60;0.60;;;;;;;14.96;31.37;98876.28;5069441;28;20094;-72
2021/12/07 10:08:45;;;;;;;0.63;0.63;;;;;;;14.85;31.38;98865.38;5067943;28;20044;-72
2021/12/07 10:11:12;;;;;;;0.63;0.63;;;;;;;15.14;31.34;98867.66;5072225;28;20557;-72
2021/12/07 10:13:39;;;;;;;0.70;0.70;;;;;;;15.08;31.29;98879.19;5070647;28;20576;-71
2021/12/07 10:16:08;;;;;;;0.67;0.67;;;;;;;15.06;31.24;98833.94;5086253;28;20491;-70
2021/12/07 10:18:38;;;;;;;0.50;0.50;;;;;;;14.92;31.39;98839.47;5087533;28;20083;-70
2021/12/07 10:21:10;;;;;;;1.20;1.00;;;;;;;15.22;31.13;98876.31;5090050;28;20065;-70
2021/12/07 10:23:42;;;;;;;0.57;0.57;;;;;;;15.44;31.11;98874.25;5088749;28;20055;-71
2021/12/07 10:26:12;;;;;;;1.37;1.00;;;;;;;14.69;31.37;98874.63;5087379;28;20087;-70
2021/12/07 10:28:52;;;;;;;0.60;0.60;;;;;;;15.66;31.21;98864.97;5069249;28;20154;-70
2021/12/07 10:31:28;;;;;;;0.80;0.80;;;;;;;15.54;31.04;98852.44;5068355;28;20135;-71
2021/12/07 10:33:57;;;;;;;0.60;0.60;;;;;;;15.33;31.62;98866.81;5067267;28;20051;-71
2021/12/07 10:36:26;;;;;;;1.20;1.10;;;;;;;14.75;31.54;98871.13;5066420;28;20063;-71
2021/12/07 10:39:09;;;;;;;0.77;0.77;;;;;;;15.51;31.30;98860.88;5068390;28;20037;-72
2021/12/07 10:41:44;;;;;;;0.60;0.60;;;;;;;15.69;30.89;98863.72;5079255;28;20518;-74
2021/12/07 10:44:16;;;;;;;1.10;1.00;;;;;;;15.55;30.96;98868.28;5087922;28;20059;-72
2021/12/07 10:46:58;;;;;;;1.37;1.03;;;;;;;15.67;30.83;98866.63;5089796;28;20499;-74
2021/12/07 10:49:46;;;;;;;0.70;0.70;;;;;;;15.77;30.71;98860.84;5094863;28;20044;-73
2021/12/07 10:52:17;;;;;;;1.10;1.00;;;;;;;14.54;31.35;98823.19;5091637;28;20048;-74
2021/12/07 10:54:48;;;;;;;0.60;0.60;;;;;;;15.67;31.04;98861.25;5058290;28;20047;-74
2021/12/07 10:57:21;;;;;;;0.60;0.60;;;;;;;15.47;31.27;98857.00;5075706;28;20150;-70
2021/12/07 11:00:20;;;;;;;1.87;1.20;;;;;;;15.70;30.73;98847.47;5093032;28;20113;-74
2021/12/07 11:02:58;;;;;;;0.80;0.80;;;;;;;15.27;30.77;98790.06;5091396;28;20084;-75
2021/12/07 11:05:26;;;;;;;0.60;0.60;;;;;;;15.39;31.43;98843.81;5092653;28;20039;-76
2021/12/07 11:07:53;;;;;;;0.80;0.80;;;;;;;15.31;31.29;98841.31;5073782;28;20123;-74
2021/12/07 11:10:31;;;;;;;1.17;0.80;;;;;;;15.59;31.21;98847.28;5074027;28;20048;-75
2021/12/07 11:15:48;;;;;;;0.60;0.60;;;;;;;15.36;31.38;98831.63;5091068;28;20036;-75
2021/12/07 11:18:14;;;;;;;0.50;0.50;;;;;;;15.03;31.60;98845.03;5058521;28;20048;-75
2021/12/07 11:20:41;;;;;;;0.50;0.50;;;;;;;15.06;31.90;98833.09;5092094;28;20123;-73
2021/12/07 11:23:09;;;;;;;0.57;0.57;;;;;;;15.50;31.43;98845.88;5073864;28;20132;-73
2021/12/07 11:31:23;;;;;;;0.93;0.80;;;;;;;15.03;31.11;98764.81;5072543;28;20437;-74
2021/12/07 11:34:10;;;;;;;1.43;1.10;;;;;;;15.29;31.55;98846.88;5091441;28;20424;-74
2021/12/07 11:36:50;;;;;;;0.60;0.60;;;;;;;15.61;30.84;98816.59;5090100;28;20052;-73
2021/12/07 11:39:23;;;;;;;0.50;0.50;;;;;;;15.28;31.08;98770.34;5089944;28;20101;-75
2021/12/07 11:41:53;;;;;;;0.60;0.60;;;;;;;15.53;31.29;98842.78;5090430;28;20604;-74
2021/12/07 11:44:19;;;;;;;0.50;0.50;;;;;;;14.87;31.67;98808.00;5089675;28;20435;-73
2021/12/07 11:46:50;;;;;;;0.63;0.63;;;;;;;15.59;31.32;98836.59;5062579;28;20045;-71
2021/12/07 11:49:25;;;;;;;1.13;1.00;;;;;;;15.64;31.36;98844.78;5070578;28;20477;-73
2021/12/07 11:51:54;;;;;;;0.60;0.60;;;;;;;15.54;31.57;98845.25;5058678;28;20559;-72
2021/12/07 11:54:22;;;;;;;0.50;0.50;;;;;;;15.65;31.56;98849.97;5071678;28;20048;-73
2021/12/07 11:56:48;;;;;;;0.60;0.60;;;;;;;15.02;31.42;98840.72;5035890;28;20047;-73
2021/12/07 11:59:14;;;;;;;0.80;0.80;;;;;;;15.22;31.32;98830.03;5067834;28;20048;-74
2021/12/07 12:01:40;;;;;;;0.70;0.70;;;;;;;15.17;31.34;98853.88;5052855;28;20059;-71
2021/12/07 12:04:06;;;;;;;0.57;0.57;;;;;;;14.97;31.39;98812.94;5069697;28;20040;-71
2021/12/07 12:06:33;;;;;;;0.50;0.50;;;;;;;15.41;31.24;98804.31;5069548;28;20051;-73
2021/12/07 12:09:00;;;;;;;3.17;1.60;;;;;;;15.73;30.97;98855.06;5020248;28;20408;-72
2021/12/07 12:11:35;;;;;;;1.80;1.20;;;;;;;16.01;30.59;98839.53;5070910;28;20040;-73
2021/12/07 12:14:10;;;;;;;0.80;0.80;;;;;;;15.93;30.70;98826.38;5069903;28;20139;-75
2021/12/07 12:17:00;;;;;;;0.50;0.50;;;;;;;16.22;30.56;98844.59;5070255;28;20044;-73
2021/12/07 12:19:46;;;;;;;0.60;0.60;;;;;;;16.05;30.33;98853.34;5068776;28;20488;-74
2021/12/07 12:22:29;;;;;;;0.60;0.60;;;;;;;16.01;30.73;98852.94;5070468;28;20373;-76
2021/12/07 12:24:59;;;;;;;0.60;0.60;;;;;;;15.84;31.23;98849.06;5068472;28;20047;-74
2021/12/07 12:27:34;;;;;;;0.63;0.63;;;;;;;16.02;30.83;98864.47;5069211;28;20048;-75
2021/12/07 12:30:24;;;;;;;5.87;0.73;;;;;;;15.76;31.13;98843.13;5069353;28;20040;-74
2021/12/07 12:32:58;;;;;;;0.60;0.60;;;;;;;15.72;30.83;98820.47;5066227;28;20052;-75
2021/12/07 12:35:41;;;;;;;0.70;0.70;;;;;;;15.86;30.98;98863.09;5070742;28;20044;-76
2021/12/07 12:38:20;;;;;;;0.80;0.80;;;;;;;16.12;30.70;98868.34;5069468;28;20047;-76
2021/12/07 12:40:55;;;;;;;0.60;0.60;;;;;;;15.98;31.02;98871.28;5069977;28;20040;-78
2021/12/07 12:43:53;;;;;;;0.50;0.50;;;;;;;16.10;30.80;98870.41;5069079;28;20063;-77
2021/12/07 12:46:24;;;;;;;0.50;0.50;;;;;;;15.73;31.40;98871.13;5011742;28;20188;-76
2021/12/07 12:48:57;;;;;;;0.60;0.60;;;;;;;15.67;31.26;98860.47;5036810;28;20048;-76
2021/12/07 12:51:24;;;;;;;0.60;0.60;;;;;;;15.54;31.35;98869.34;5068258;28;20040;-76
2021/12/07 12:53:52;;;;;;;1.10;0.67;;;;;;;15.73;31.36;98870.34;5052261;28;20142;-75
2021/12/07 12:56:26;;;;;;;0.77;0.70;;;;;;;16.04;30.79;98868.59;5069516;28;20041;-77
2021/12/07 12:58:57;;;;;;;0.60;0.60;;;;;;;15.82;31.21;98843.09;5070533;28;20463;-77
2021/12/07 13:01:31;;;;;;;0.80;0.80;;;;;;;15.27;31.62;98864.19;5071760;28;20044;-75
2021/12/07 13:03:59;;;;;;;1.77;0.83;;;;;;;15.27;31.38;98865.81;5064511;28;20445;-76
2021/12/07 13:06:31;;;;;;;0.60;0.60;;;;;;;15.24;31.60;98868.06;5067238;28;20112;-78
2021/12/07 13:09:20;;;;;;;0.80;0.80;;;;;;;16.17;30.71;98851.63;5068631;28;20083;-76
2021/12/07 13:11:58;;;;;;;0.60;0.60;;;;;;;16.01;30.94;98858.28;5046813;28;20416;-76
2021/12/07 13:14:24;;;;;;;1.77;1.20;;;;;;;15.18;31.46;98860.88;5085142;28;20040;-77
2021/12/07 13:17:10;;;;;;;2.73;1.00;;;;;;;15.13;31.60;98856.16;5072082;28;20408;-76
2021/12/07 13:20:07;;;;;;;0.67;0.67;;;;;;;16.20;30.72;98845.84;5084915;28;20055;-76
2021/12/07 13:22:54;;;;;;;0.70;0.70;;;;;;;15.53;31.36;98848.94;5075934;28;20515;-76
2021/12/07 13:25:25;;;;;;;0.80;0.80;;;;;;;16.10;30.88;98857.03;5094631;28;20508;-76
2021/12/07 13:28:04;;;;;;;;;;;;;;;16.46;30.05;98848.44;5076395;28;20105;-76
2021/12/07 13:30:45;;;;;;;0.80;0.80;;;;;;;16.32;30.44;98857.53;5092173;28;19919;-74
2021/12/07 13:33:17;;;;;;;;;;;;;;;16.47;30.13;98853.59;5072298;28;20036;-75